Time;durP1;ratioP1;P1;durP2;ratioP2;P2;SDS_P1;SDS_P2;PMS_P1;PMS_P2;Temp;Humidity;BMP_temperature;BMP_pressure;BME280_temperature;BME280_humidity;BME280_pressure;Samples;Min_cycle;Max_cycle;Signal;HPM_P1;HPM_P2
2023/09/09 00:01:17;;;;;;;7.28;6.63;;;;;;;-144.30;91.70;84953.16;5111814;28;20198;-52
2023/09/09 00:03:45;;;;;;;7.22;6.45;;;;;;;-144.30;91.96;85000.84;5111443;28;20209;-51
2023/09/09 00:06:13;;;;;;;6.50;5.90;;;;;;;-144.30;91.58;84816.00;5111590;28;20266;-52
2023/09/09 00:08:42;;;;;;;8.48;6.05;;;;;;;-144.30;91.54;84973.03;5111550;28;20697;-52
2023/09/09 00:11:11;;;;;;;8.75;6.13;;;;;;;-144.30;91.65;84984.97;5111682;28;20202;-52
2023/09/09 00:13:38;;;;;;;8.98;7.05;;;;;;;-144.30;91.45;84984.97;5111628;28;20199;-52
2023/09/09 00:16:05;;;;;;;7.10;5.53;;;;;;;-144.30;90.73;84947.19;5111245;28;20207;-56
2023/09/09 00:18:32;;;;;;;8.57;5.38;;;;;;;-144.30;91.11;84961.09;5111372;28;20603;-57
2023/09/09 00:21:00;;;;;;;7.13;5.32;;;;;;;-144.30;90.92;84967.06;5110996;28;20624;-57
2023/09/09 00:23:27;;;;;;;6.40;5.90;;;;;;;-144.30;90.65;84986.94;5111268;28;20265;-56
2023/09/09 00:25:53;;;;;;;8.70;6.28;;;;;;;-144.30;90.88;84943.22;5111303;28;20698;-50
2023/09/09 00:28:23;;;;;;;6.00;5.55;;;;;;;-144.30;90.87;84998.88;5111404;28;20190;-51
2023/09/09 00:30:50;;;;;;;12.18;6.05;;;;;;;-144.30;90.94;84953.16;5111049;28;20233;-57
2023/09/09 00:33:17;;;;;;;6.38;5.55;;;;;;;-144.30;91.36;85004.84;5111043;28;20194;-57
2023/09/09 00:35:44;;;;;;;7.07;6.15;;;;;;;-144.30;91.31;84945.19;5110765;28;20199;-57
2023/09/09 00:38:13;;;;;;;6.22;5.65;;;;;;;-144.30;91.52;85022.72;5110840;28;20285;-57
2023/09/09 00:40:45;;;;;;;6.40;5.80;;;;;;;-144.30;91.73;85010.78;5110004;28;20199;-57
2023/09/09 00:43:12;;;;;;;8.80;6.68;;;;;;;-144.30;91.68;84975.00;5110903;28;20263;-56
2023/09/09 00:45:41;;;;;;;9.18;5.70;;;;;;;-144.30;91.61;84963.09;5110981;28;20657;-57
2023/09/09 00:48:08;;;;;;;8.52;6.47;;;;;;;-144.30;91.14;84986.94;5110611;28;20194;-51
2023/09/09 00:50:35;;;;;;;6.78;6.03;;;;;;;-144.30;91.17;85010.78;5110991;28;20191;-57
2023/09/09 00:53:02;;;;;;;7.93;6.10;;;;;;;-144.30;91.15;84996.88;5110703;28;20206;-51
2023/09/09 00:55:30;;;;;;;5.55;4.95;;;;;;;-144.30;90.75;84998.88;5110568;28;20285;-57
2023/09/09 00:57:57;;;;;;;5.93;5.10;;;;;;;-144.30;90.60;84947.19;5110574;28;20201;-52
2023/09/09 01:00:24;;;;;;;8.18;5.03;;;;;;;-144.30;89.76;84855.75;5110268;28;20218;-57
2023/09/09 01:02:52;;;;;;;6.68;5.93;;;;;;;-144.30;89.35;84917.38;5110244;28;20601;-51
2023/09/09 01:05:20;;;;;;;5.75;5.28;;;;;;;-144.30;89.01;84949.19;5110448;28;20195;-51
2023/09/09 01:07:48;;;;;;;8.80;5.90;;;;;;;-144.30;89.25;84923.34;5110197;28;20205;-52
2023/09/09 01:10:17;;;;;;;9.52;6.03;;;;;;;-144.30;89.04;84951.16;5110275;28;20198;-51
2023/09/09 01:12:44;;;;;;;8.15;5.47;;;;;;;-144.30;88.93;84945.19;5110110;28;20194;-52
2023/09/09 01:15:11;;;;;;;8.10;6.03;;;;;;;-144.30;88.74;84935.25;5110214;28;20194;-53
2023/09/09 01:17:39;;;;;;;7.07;5.43;;;;;;;-144.30;88.73;84931.28;5110158;28;20204;-52
2023/09/09 01:20:13;;;;;;;6.15;5.53;;;;;;;-144.30;88.21;84935.25;5110016;28;20218;-51
2023/09/09 01:22:43;;;;;;;7.07;5.22;;;;;;;-144.30;87.31;84885.56;5110017;28;20238;-52
2023/09/09 01:25:11;;;;;;;5.10;4.70;;;;;;;-144.30;86.75;84899.47;5110194;28;20644;-51
2023/09/09 01:27:38;;;;;;;8.00;5.57;;;;;;;-144.30;86.55;84855.75;5110001;28;20207;-57
2023/09/09 01:30:08;;;;;;;5.70;5.30;;;;;;;-144.30;86.64;84927.31;5109964;28;20671;-57
2023/09/09 01:32:35;;;;;;;6.68;5.13;;;;;;;-144.30;86.85;85116.16;5110113;28;20702;-52
2023/09/09 01:35:06;;;;;;;6.20;5.50;;;;;;;-144.30;87.24;84933.28;5109911;28;20199;-52
2023/09/09 01:37:34;;;;;;;8.13;5.50;;;;;;;-144.30;87.75;84887.56;5109921;28;20202;-57
2023/09/09 01:40:09;;;;;;;6.55;5.95;;;;;;;-144.30;87.75;84871.66;5109597;28;20225;-57
2023/09/09 01:42:37;;;;;;;7.68;5.78;;;;;;;-144.30;88.04;84905.44;5109717;28;20194;-51
2023/09/09 01:45:05;;;;;;;6.20;5.63;;;;;;;-144.30;88.18;84911.41;5109562;28;20206;-50
2023/09/09 01:47:32;;;;;;;8.27;6.20;;;;;;;-144.30;88.50;84907.44;5109746;28;20201;-58
2023/09/09 01:49:58;;;;;;;7.03;5.47;;;;;;;-144.30;88.21;84889.53;5109545;28;20201;-52
2023/09/09 01:52:25;;;;;;;6.40;5.35;;;;;;;-144.30;87.64;84923.34;5109553;28;20198;-51
2023/09/09 01:54:52;;;;;;;9.30;5.07;;;;;;;-144.30;87.53;84871.66;5109539;28;20197;-51
2023/09/09 01:57:22;;;;;;;9.60;5.72;;;;;;;-144.30;86.93;84875.63;5109593;28;20202;-56
2023/09/09 01:59:48;;;;;;;9.32;5.80;;;;;;;-144.30;86.69;84887.56;5109529;28;20226;-51
2023/09/09 02:02:16;;;;;;;9.43;5.70;;;;;;;-144.30;87.06;84901.47;5109673;28;20235;-51
2023/09/09 02:04:43;;;;;;;6.40;5.53;;;;;;;-144.30;87.14;84937.25;5109365;28;20667;-56
2023/09/09 02:07:10;;;;;;;7.40;5.50;;;;;;;-144.30;86.90;84899.47;5109500;28;20194;-56
2023/09/09 02:09:37;;;;;;;6.28;5.40;;;;;;;-144.30;86.79;84943.22;5109416;28;20190;-56
2023/09/09 02:12:04;;;;;;;9.07;5.93;;;;;;;-144.30;86.71;84879.59;5109220;28;20205;-57
2023/09/09 02:14:33;;;;;;;8.23;5.75;;;;;;;-144.30;87.01;84911.41;5109460;28;20195;-57
2023/09/09 02:17:00;;;;;;;8.43;6.13;;;;;;;-144.30;87.54;84931.28;5109169;28;20205;-52
2023/09/09 02:19:27;;;;;;;6.60;5.53;;;;;;;-144.30;87.81;84945.19;5109047;28;20311;-51
2023/09/09 02:21:55;;;;;;;7.22;6.45;;;;;;;-144.30;87.96;84945.19;5109369;28;20770;-52
2023/09/09 02:24:22;;;;;;;8.48;6.43;;;;;;;-144.30;88.21;84929.28;5109350;28;20697;-57
2023/09/09 02:26:49;;;;;;;10.38;6.28;;;;;;;-144.30;88.72;84953.16;5109332;28;20218;-51
2023/09/09 02:29:16;;;;;;;6.95;6.25;;;;;;;-144.30;89.14;84939.25;5109277;28;20216;-57
2023/09/09 02:31:45;;;;;;;8.45;6.47;;;;;;;-144.30;89.64;85006.81;5109092;28;20272;-57
2023/09/09 02:34:11;;;;;;;7.00;6.40;;;;;;;-144.30;89.85;84979.00;5109269;28;20282;-56
2023/09/09 02:36:44;;;;;;;8.77;6.05;;;;;;;-144.30;90.22;84959.13;5109124;28;20220;-57
2023/09/09 02:39:11;;;;;;;8.23;7.13;;;;;;;-144.30;90.38;84951.16;5109237;28;20726;-51
2023/09/09 02:41:38;;;;;;;9.20;6.63;;;;;;;-144.30;90.52;85299.03;5109022;28;20249;-51
2023/09/09 02:44:05;;;;;;;13.30;7.13;;;;;;;-144.30;90.75;84979.00;5109339;28;20199;-51
2023/09/09 02:46:32;;;;;;;11.43;7.10;;;;;;;-144.30;90.59;84996.88;5109081;28;20209;-52
2023/09/09 02:49:00;;;;;;;8.27;6.72;;;;;;;-144.30;90.96;84979.00;5109323;28;20191;-51
2023/09/09 02:51:27;;;;;;;7.63;6.85;;;;;;;-144.30;91.07;85002.84;5108856;28;20201;-51
2023/09/09 02:53:54;;;;;;;7.38;6.78;;;;;;;-144.30;91.76;85006.81;5109081;28;20199;-57
2023/09/09 02:56:21;;;;;;;10.38;6.82;;;;;;;-144.30;92.21;85012.78;5108949;28;20195;-57
2023/09/09 02:58:47;;;;;;;13.95;7.47;;;;;;;-144.30;92.65;85010.78;5108777;28;20205;-56
2023/09/09 03:01:14;;;;;;;8.32;7.25;;;;;;;-144.30;92.62;85026.69;5108854;28;20225;-51
2023/09/09 03:03:41;;;;;;;9.60;7.95;;;;;;;-144.30;92.56;84915.38;5110254;28;20251;-57
2023/09/09 03:06:12;;;;;;;9.35;6.95;;;;;;;-144.30;92.57;85020.72;5112744;28;20207;-51
2023/09/09 03:08:39;;;;;;;13.05;7.80;;;;;;;-144.30;92.82;84998.88;5112653;28;20204;-52
2023/09/09 03:11:06;;;;;;;8.77;7.18;;;;;;;-144.30;92.96;84963.09;5112518;28;20199;-52
2023/09/09 03:13:33;;;;;;;9.93;7.47;;;;;;;-144.30;93.44;85022.72;5112840;28;20204;-51
2023/09/09 03:15:59;;;;;;;8.90;7.15;;;;;;;-144.30;93.57;85056.50;5112402;28;20722;-58
2023/09/09 03:18:26;;;;;;;8.50;7.22;;;;;;;-144.30;93.76;85046.56;5112878;28;20682;-57
2023/09/09 03:20:53;;;;;;;10.48;7.32;;;;;;;-144.30;93.81;85048.56;5112379;28;20222;-51
2023/09/09 03:23:22;;;;;;;8.55;7.75;;;;;;;-144.30;94.02;85036.63;5112173;28;20242;-57
2023/09/09 03:25:48;;;;;;;11.20;8.05;;;;;;;-144.30;94.09;85046.56;5112141;28;20205;-57
2023/09/09 03:28:15;;;;;;;9.73;8.05;;;;;;;-144.30;94.26;85036.63;5112259;28;20194;-57
2023/09/09 03:30:55;;;;;;;16.48;10.40;;;;;;;-144.30;94.33;85050.53;5112284;28;20197;-57
2023/09/09 03:33:22;;;;;;;13.30;8.57;;;;;;;-144.30;94.97;85189.69;5112368;28;20199;-57
2023/09/09 03:35:49;;;;;;;15.52;9.43;;;;;;;-144.30;95.62;85064.47;5111038;28;20230;-56
2023/09/09 03:38:16;;;;;;;12.57;8.00;;;;;;;-144.30;95.71;85050.53;5111715;28;20614;-56
2023/09/09 03:40:44;;;;;;;17.58;14.20;;;;;;;-144.30;95.67;85078.38;5111458;28;20222;-56
2023/09/09 03:43:12;;;;;;;18.90;10.75;;;;;;;-144.30;96.12;85092.28;5111495;28;20222;-51
2023/09/09 03:45:39;;;;;;;10.05;9.07;;;;;;;-144.30;96.65;85080.38;5111459;28;20187;-51
2023/09/09 03:48:06;;;;;;;12.70;8.70;;;;;;;-144.30;97.07;85102.22;5111517;28;20232;-51
2023/09/09 03:50:33;;;;;;;12.13;10.80;;;;;;;-144.30;97.23;85436.19;5111621;28;20198;-52
2023/09/09 03:53:01;;;;;;;12.20;8.95;;;;;;;-144.30;97.72;85126.09;5111266;28;20586;-57
2023/09/09 03:55:27;;;;;;;9.65;8.27;;;;;;;-144.30;97.75;85054.53;5107837;28;20577;-57
2023/09/09 03:57:56;;;;;;;10.63;9.57;;;;;;;-144.30;97.93;85098.25;5110911;28;20209;-57
2023/09/09 04:00:23;;;;;;;13.63;9.23;;;;;;;-144.30;98.11;85100.25;5108986;28;20653;-51
2023/09/09 04:02:50;;;;;;;11.07;9.07;;;;;;;-144.30;98.24;85108.19;5111053;28;20248;-57
2023/09/09 04:05:17;;;;;;;13.88;9.23;;;;;;;-144.30;97.94;85094.28;5111188;28;20578;-57
2023/09/09 04:07:44;;;;;;;11.35;10.23;;;;;;;-144.30;97.62;85110.19;5111268;28;20688;-52
2023/09/09 04:10:12;;;;;;;19.20;13.07;;;;;;;-144.30;97.55;85038.63;5111002;28;20195;-51
2023/09/09 04:12:38;;;;;;;11.20;10.10;;;;;;;-144.30;97.39;85078.38;5110776;28;20193;-56
2023/09/09 04:15:08;;;;;;;19.77;12.57;;;;;;;-144.30;97.31;85088.31;5106829;28;20204;-57
2023/09/09 04:17:35;;;;;;;11.20;9.77;;;;;;;-144.30;96.97;85084.34;5092641;28;20201;-52
2023/09/09 04:20:03;;;;;;;25.23;17.10;;;;;;;-144.30;96.63;85044.59;5110675;28;20215;-57
2023/09/09 04:22:30;;;;;;;21.10;14.90;;;;;;;-144.30;96.04;85060.50;5111068;28;20280;-57
2023/09/09 04:24:57;;;;;;;13.13;10.95;;;;;;;-144.30;95.79;85052.53;5105844;28;20202;-54
2023/09/09 04:27:24;;;;;;;17.33;13.73;;;;;;;-144.30;95.33;85048.56;5111424;28;20217;-56
2023/09/09 04:29:51;;;;;;;18.20;9.98;;;;;;;-144.30;94.57;85016.75;5111075;28;20201;-56
2023/09/09 04:32:19;;;;;;;22.42;17.58;;;;;;;-144.30;94.41;85018.75;5106273;28;20602;-56
2023/09/09 04:34:46;;;;;;;30.83;22.60;;;;;;;-144.30;93.69;85004.84;5110843;28;20198;-56
2023/09/09 04:37:14;;;;;;;13.65;8.73;;;;;;;-144.30;93.14;84967.06;5110713;28;20198;-51
2023/09/09 04:39:41;;;;;;;16.75;10.82;;;;;;;-144.30;92.31;84937.25;5110779;28;20595;-57
2023/09/09 04:42:07;;;;;;;8.57;7.28;;;;;;;-144.30;91.61;84899.47;5102586;28;20202;-52
2023/09/09 04:44:35;;;;;;;11.55;9.57;;;;;;;-144.30;89.33;84837.88;5110502;28;20201;-51
2023/09/09 04:47:02;;;;;;;11.25;8.93;;;;;;;-144.30;87.02;84702.72;5109731;28;20760;-51
2023/09/09 04:49:31;;;;;;;14.57;10.57;;;;;;;-144.30;86.37;84724.56;5110781;28;20263;-52
2023/09/09 04:51:58;;;;;;;10.40;7.70;;;;;;;-144.30;86.42;84790.16;5110550;28;20206;-57
2023/09/09 04:54:25;;;;;;;12.25;8.80;;;;;;;-144.30;86.39;84778.25;5110938;28;20566;-57
2023/09/09 04:56:52;;;;;;;14.50;7.85;;;;;;;-144.30;86.67;84746.44;5110804;28;20197;-57
2023/09/09 04:59:19;;;;;;;13.00;7.65;;;;;;;-144.30;86.34;84756.38;5110536;28;20195;-57
2023/09/09 05:01:46;;;;;;;27.83;18.35;;;;;;;-144.30;84.60;84649.03;5110044;28;20708;-57
2023/09/09 05:04:12;;;;;;;13.27;8.90;;;;;;;-144.30;78.81;84432.41;5110193;28;20199;-57
2023/09/09 05:06:41;;;;;;;36.95;24.58;;;;;;;-144.30;72.63;84156.19;5110336;28;20190;-58
2023/09/09 05:09:08;;;;;;;10.68;6.95;;;;;;;-144.30;68.09;83887.91;5110427;28;20206;-51
2023/09/09 05:11:34;;;;;;;13.27;8.75;;;;;;;-144.30;60.73;83430.91;5107574;28;20251;-52
2023/09/09 05:14:02;;;;;;;7.22;6.60;;;;;;;-144.30;57.47;83486.56;5093638;28;20202;-52
2023/09/09 05:16:29;;;;;;;8.48;6.18;;;;;;;-144.30;54.74;83281.91;5105281;28;20198;-52
2023/09/09 05:18:56;;;;;;;8.98;7.75;;;;;;;-144.30;52.56;83170.66;5109092;28;20752;-48
2023/09/09 05:21:23;;;;;;;8.35;6.43;;;;;;;-144.30;50.63;82960.06;5109651;28;20616;-49
2023/09/09 05:23:51;;;;;;;7.32;6.60;;;;;;;-144.30;48.02;82819.03;5109555;28;20624;-51
2023/09/09 05:26:18;;;;;;;8.57;7.10;;;;;;;-144.30;47.11;82729.66;5108710;28;20194;-51
2023/09/09 05:28:45;;;;;;;8.25;6.18;;;;;;;-144.30;45.97;82616.44;5107793;28;20201;-50
2023/09/09 05:31:12;;;;;;;16.83;8.93;;;;;;;-144.30;46.05;82658.13;5108893;28;20195;-54
2023/09/09 05:33:39;;;;;;;6.57;5.82;;;;;;;-144.30;44.98;82554.84;5108235;28;20198;-54
2023/09/09 05:36:06;;;;;;;6.82;6.18;;;;;;;-144.30;44.51;82515.13;5108863;28;20198;-56
2023/09/09 05:38:35;;;;;;;9.07;7.45;;;;;;;-144.30;44.67;82487.31;5109286;28;20195;-55
2023/09/09 05:41:03;;;;;;;11.27;7.90;;;;;;;-144.30;43.39;82388.00;5109179;28;20214;-50
2023/09/09 05:43:30;;;;;;;11.05;7.38;;;;;;;-144.30;43.24;82378.06;5109154;28;20199;-49
2023/09/09 05:45:57;;;;;;;7.20;6.50;;;;;;;-144.30;42.98;82308.56;5108568;28;20591;-50
2023/09/09 05:48:24;;;;;;;11.43;7.15;;;;;;;-144.30;41.88;82215.22;5108563;28;20293;-48
2023/09/09 05:50:51;;;;;;;13.52;6.45;;;;;;;-144.30;41.13;82117.88;5108991;28;20289;-50
2023/09/09 05:53:18;;;;;;;11.32;6.60;;;;;;;-144.30;40.26;82032.50;5109635;28;20205;-54
2023/09/09 05:55:45;;;;;;;8.90;6.70;;;;;;;-144.30;39.99;81962.97;5109212;28;20194;-50
2023/09/09 05:58:13;;;;;;;12.80;6.18;;;;;;;-144.30;40.20;82044.41;5106613;28;20604;-49
2023/09/09 06:00:40;;;;;;;9.52;5.75;;;;;;;-144.30;39.48;81966.94;5106238;28;20304;-50
2023/09/09 06:03:06;;;;;;;8.98;6.40;;;;;;;-144.30;39.22;81913.34;5109430;28;20198;-49
2023/09/09 06:05:33;;;;;;;7.60;5.80;;;;;;;-144.30;38.98;81919.28;5109465;28;20194;-49
2023/09/09 06:08:00;;;;;;;9.63;6.57;;;;;;;-144.30;38.51;81804.09;5108062;28;20201;-50
2023/09/09 06:10:27;;;;;;;12.65;5.90;;;;;;;-144.30;37.71;81768.38;5108737;28;20569;-50
2023/09/09 06:12:54;;;;;;;8.15;5.97;;;;;;;-144.30;38.08;81865.66;5109185;28;20285;-53
2023/09/09 06:15:22;;;;;;;7.03;5.90;;;;;;;-144.30;38.53;81951.06;5108393;28;20201;-54
2023/09/09 06:17:49;;;;;;;6.35;5.30;;;;;;;-144.30;38.05;81849.78;5109042;28;20194;-54
2023/09/09 06:20:16;;;;;;;6.97;5.70;;;;;;;-144.30;37.48;81744.53;5108670;28;20216;-54
2023/09/09 06:22:43;;;;;;;11.52;6.25;;;;;;;-144.30;37.51;81728.66;5108144;28;20674;-53
2023/09/09 06:25:10;;;;;;;8.43;5.63;;;;;;;-144.30;36.60;81585.66;5106507;28;20575;-53
2023/09/09 06:27:37;;;;;;;7.53;5.40;;;;;;;-144.30;37.56;81839.84;5108604;28;20250;-49
2023/09/09 06:30:04;;;;;;;8.65;6.00;;;;;;;-144.30;36.87;81681.00;5108727;28;20232;-48
2023/09/09 06:32:33;;;;;;;6.90;5.03;;;;;;;-144.30;35.78;81450.66;5109788;28;20613;-49
2023/09/09 06:35:00;;;;;;;8.50;5.85;;;;;;;-144.30;35.03;81408.94;5109408;28;20190;-49
2023/09/09 06:37:26;;;;;;;8.90;5.07;;;;;;;-144.30;35.10;81361.28;5108316;28;20204;-49
2023/09/09 06:39:53;;;;;;;9.65;5.00;;;;;;;-144.30;33.99;81144.88;5111960;28;20701;-50
2023/09/09 06:42:22;;;;;;;6.28;4.68;;;;;;;-144.30;32.74;80855.00;5113106;28;20214;-54
2023/09/09 06:44:49;;;;;;;7.68;4.82;;;;;;;-144.30;32.08;80797.41;5113199;28;20190;-54
2023/09/09 06:47:16;;;;;;;9.60;4.43;;;;;;;-144.30;32.51;81045.59;5113497;28;20670;-54
2023/09/09 06:49:44;;;;;;;7.97;4.15;;;;;;;-144.30;32.70;81025.72;5113478;28;20700;-55
2023/09/09 06:52:11;;;;;;;4.25;3.92;;;;;;;-144.30;33.04;81178.63;5113073;28;20194;-50
2023/09/09 06:54:38;;;;;;;5.60;3.70;;;;;;;-144.30;33.00;81254.06;5113245;28;20255;-51
2023/09/09 06:57:06;;;;;;;6.75;4.82;;;;;;;-144.30;32.82;81244.13;5113048;28;20198;-50
2023/09/09 06:59:32;;;;;;;4.65;4.07;;;;;;;-144.30;32.18;81236.19;5112789;28;20198;-55
2023/09/09 07:01:59;;;;;;;4.45;4.13;;;;;;;-144.30;32.02;81125.00;5111937;28;20224;-55
2023/09/09 07:04:26;;;;;;;4.20;3.83;;;;;;;-144.30;31.91;81271.94;5113460;28;20205;-54
2023/09/09 07:06:55;;;;;;;9.27;3.83;;;;;;;-144.30;32.48;81317.59;5113063;28;20239;-50
2023/09/09 07:09:21;;;;;;;4.85;3.72;;;;;;;-144.30;32.21;81140.91;5113317;28;20229;-54
2023/09/09 07:11:48;;;;;;;5.50;4.25;;;;;;;-144.30;32.66;81262.00;5109478;28;20848;-57
2023/09/09 07:14:15;;;;;;;5.78;3.70;;;;;;;-144.30;33.14;81375.19;5105335;28;20198;-57
2023/09/09 07:16:42;;;;;;;9.35;4.40;;;;;;;-144.30;32.25;81198.47;5113330;28;20229;-56
2023/09/09 07:19:09;;;;;;;6.28;3.80;;;;;;;-144.30;32.34;81182.59;5111459;28;20206;-57
2023/09/09 07:21:36;;;;;;;5.13;3.60;;;;;;;-144.30;32.42;81256.06;5104120;28;20237;-58
2023/09/09 07:24:05;;;;;;;8.77;4.28;;;;;;;-144.30;32.65;81295.75;5092384;28;20226;-58
2023/09/09 07:26:32;;;;;;;6.18;4.50;;;;;;;-144.30;32.51;81315.63;5092663;28;20205;-58
2023/09/09 07:28:59;;;;;;;6.88;3.83;;;;;;;-144.30;31.57;81009.84;5107115;28;20205;-58
2023/09/09 07:31:28;;;;;;;7.05;3.90;;;;;;;-144.30;30.90;80835.13;5113000;28;20229;-51
2023/09/09 07:33:54;;;;;;;4.88;4.25;;;;;;;-144.30;30.53;80765.66;5112646;28;20205;-58
2023/09/09 07:36:21;;;;;;;5.00;4.25;;;;;;;-144.30;30.11;80751.75;5112849;28;20193;-58
2023/09/09 07:38:48;;;;;;;6.05;3.75;;;;;;;-144.30;30.73;80894.69;5104285;28;20198;-59
2023/09/09 07:41:16;;;;;;;6.65;3.90;;;;;;;-144.30;30.25;80789.47;5092835;28;20227;-59
2023/09/09 07:43:44;;;;;;;9.48;4.15;;;;;;;-144.30;30.39;80751.75;5091927;28;20205;-57
2023/09/09 07:46:11;;;;;;;4.38;3.97;;;;;;;-144.30;30.01;80912.56;5110104;28;20218;-58
2023/09/09 07:48:38;;;;;;;9.35;4.03;;;;;;;-144.30;30.39;80686.25;5113281;28;20200;-59
2023/09/09 07:51:05;;;;;;;5.00;4.50;;;;;;;-144.30;29.41;80676.31;5112437;28;20190;-59
2023/09/09 07:53:31;;;;;;;7.75;4.00;;;;;;;-144.30;28.91;80432.16;5093950;28;20267;-58
2023/09/09 07:55:58;;;;;;;5.65;4.70;;;;;;;-144.30;28.26;80267.38;5092812;28;20568;-57
2023/09/09 07:58:27;;;;;;;6.15;3.78;;;;;;;-144.30;27.76;80205.84;5092804;28;20241;-57
2023/09/09 08:01:04;;;;;;;10.40;4.30;;;;;;;-144.30;27.09;80102.63;5092400;28;20222;-57
2023/09/09 08:03:31;;;;;;;4.28;3.88;;;;;;;-144.30;27.26;80444.06;5092751;28;20576;-53
2023/09/09 08:06:02;;;;;;;10.18;4.07;;;;;;;-144.30;26.85;79918.06;5092056;28;20619;-53
2023/09/09 08:08:29;;;;;;;4.55;3.33;;;;;;;-144.30;26.14;79902.16;5092238;28;20198;-52
2023/09/09 08:10:56;;;;;;;3.30;3.08;;;;;;;-144.30;25.31;79699.72;5092168;28;20194;-52
2023/09/09 08:13:23;;;;;;;4.20;3.80;;;;;;;-144.30;25.68;79441.75;5092005;28;20194;-52
2023/09/09 08:15:51;;;;;;;3.60;3.30;;;;;;;-144.30;24.85;79036.91;5091795;28;20206;-52
2023/09/09 08:18:18;;;;;;;4.45;2.80;;;;;;;-144.30;24.10;79485.41;5091579;28;20198;-58
2023/09/09 08:20:49;;;;;;;7.63;3.25;;;;;;;-144.30;23.87;79473.50;5091158;28;20199;-57
2023/09/09 08:23:16;;;;;;;3.53;2.83;;;;;;;-144.30;23.52;79765.22;5091603;28;20236;-59
2023/09/09 08:25:43;;;;;;;3.92;3.50;;;;;;;-144.30;23.38;79511.19;5094806;28;20186;-53
2023/09/09 08:28:10;;;;;;;5.20;2.80;;;;;;;-144.30;23.08;79384.19;5110272;28;20190;-59
2023/09/09 08:30:37;;;;;;;3.97;2.95;;;;;;;-144.30;23.19;79310.75;5110110;28;20200;-60
2023/09/09 08:33:05;;;;;;;3.53;3.17;;;;;;;-144.30;23.65;79664.00;5110392;28;20209;-59
2023/09/09 08:35:32;;;;;;;4.15;3.10;;;;;;;-144.30;23.72;80015.31;5110486;28;20190;-59
2023/09/09 08:38:01;;;;;;;4.07;2.80;;;;;;;-144.30;23.50;80660.44;5110030;28;20229;-59
2023/09/09 08:40:28;;;;;;;3.25;3.05;;;;;;;-144.30;25.07;81174.66;5110215;28;20244;-58
2023/09/09 08:43:03;;;;;;;3.85;2.65;;;;;;;-144.30;26.28;81681.00;5110900;28;20645;-58
2023/09/09 08:45:39;;;;;;;5.70;3.13;;;;;;;-144.30;27.19;82288.69;5111590;28;20204;-59
2023/09/09 08:48:08;;;;;;;3.13;2.65;;;;;;;-144.30;29.19;82598.56;5111045;28;20637;-58
2023/09/09 08:50:38;;;;;;;2.78;2.50;;;;;;;-144.30;29.17;82715.75;5111321;28;20256;-52
2023/09/09 08:53:06;;;;;;;3.22;2.90;;;;;;;-144.30;30.41;82944.19;5111159;28;20259;-53
2023/09/09 08:55:33;;;;;;;6.75;2.90;;;;;;;-144.30;31.44;83115.03;5111359;28;20194;-59
2023/09/09 08:58:01;;;;;;;8.45;2.67;;;;;;;-144.30;30.31;82864.72;5111422;28;20580;-58
2023/09/09 09:00:34;;;;;;;5.85;2.75;;;;;;;-144.30;28.65;82705.81;5111354;28;20203;-58
2023/09/09 09:03:02;;;;;;;2.75;2.55;;;;;;;-144.30;28.01;82491.28;5111351;28;20230;-58
2023/09/09 09:05:31;;;;;;;3.80;2.75;;;;;;;-144.30;28.00;82459.50;5111754;28;20198;-53
2023/09/09 09:07:58;;;;;;;3.67;2.83;;;;;;;-144.30;29.16;82610.47;5111338;28;20251;-57
2023/09/09 09:10:25;;;;;;;4.18;2.95;;;;;;;-144.30;29.89;82797.19;5111564;28;20196;-53
2023/09/09 09:12:52;;;;;;;4.68;3.00;;;;;;;-144.30;30.55;83146.81;5111854;28;20186;-53
2023/09/09 09:15:21;;;;;;;6.60;2.95;;;;;;;-144.30;31.10;83043.50;5111779;28;20206;-57
2023/09/09 09:17:49;;;;;;;5.80;3.17;;;;;;;-144.30;32.52;83172.66;5111701;28;20198;-58
2023/09/09 09:20:26;;;;;;;4.03;3.28;;;;;;;-144.30;33.79;83277.94;5111729;28;20198;-57
2023/09/09 09:22:59;;;;;;;7.25;3.38;;;;;;;-144.30;33.84;83273.97;5111459;28;20228;-57
2023/09/09 09:25:26;;;;;;;3.38;2.70;;;;;;;-144.30;33.84;83107.09;5111546;28;20196;-57
2023/09/09 09:27:56;;;;;;;5.93;4.10;;;;;;;-144.30;33.02;83291.84;5111316;28;20197;-58
2023/09/09 09:30:24;;;;;;;3.17;2.97;;;;;;;-144.30;32.29;83154.75;5111593;28;20218;-58
2023/09/09 09:32:55;;;;;;;5.57;2.90;;;;;;;-144.30;31.61;83073.31;5111366;28;20761;-52
2023/09/09 09:35:25;;;;;;;2.60;2.40;;;;;;;-144.30;31.08;83031.59;5111182;28;20201;-58
2023/09/09 09:37:56;;;;;;;3.58;3.28;;;;;;;-144.30;30.01;82757.47;5111029;28;20195;-58
2023/09/09 09:40:23;;;;;;;8.15;3.08;;;;;;;-144.30;28.66;82588.63;5111223;28;20194;-57
2023/09/09 09:42:50;;;;;;;3.33;2.58;;;;;;;-144.30;27.67;82250.97;5111213;28;20214;-57
2023/09/09 09:45:18;;;;;;;3.70;3.10;;;;;;;-144.30;27.48;82362.19;5111187;28;20194;-57
2023/09/09 09:47:46;;;;;;;8.15;3.08;;;;;;;-144.30;27.24;82105.97;5111166;28;20290;-57
2023/09/09 09:50:22;;;;;;;3.10;2.90;;;;;;;-144.30;27.96;82332.38;5110906;28;20202;-52
2023/09/09 09:52:56;;;;;;;3.15;2.95;;;;;;;-144.30;28.68;82497.25;5111152;28;20191;-52
2023/09/09 09:55:25;;;;;;;4.80;2.78;;;;;;;-144.30;29.72;82775.34;5111165;28;20186;-57
2023/09/09 09:57:55;;;;;;;8.25;3.05;;;;;;;-144.30;30.73;83031.59;5111010;28;20205;-57
2023/09/09 10:00:23;;;;;;;3.20;2.90;;;;;;;-144.30;31.49;83160.72;5110790;28;20190;-57
2023/09/09 10:02:54;;;;;;;5.35;3.47;;;;;;;-144.30;32.18;83325.63;5110770;28;20250;-57
2023/09/09 10:05:22;;;;;;;3.45;2.88;;;;;;;-144.30;32.96;83369.34;5105585;28;20203;-57
2023/09/09 10:07:53;;;;;;;4.22;2.67;;;;;;;-144.30;33.25;83454.75;5110575;28;20205;-57
2023/09/09 10:10:23;;;;;;;3.38;3.17;;;;;;;-144.30;33.87;83468.66;5110597;28;20201;-51
2023/09/09 10:12:56;;;;;;;8.60;3.50;;;;;;;-144.30;34.03;83496.50;5107047;28;20616;-51
2023/09/09 10:15:26;;;;;;;5.35;3.00;;;;;;;-144.30;34.36;83500.47;5110471;28;20288;-51
2023/09/09 10:17:54;;;;;;;4.47;3.33;;;;;;;-144.30;34.26;83510.41;5110393;28;20727;-51
2023/09/09 10:20:23;;;;;;;7.03;3.38;;;;;;;-144.30;34.04;83488.53;5110085;28;20205;-51
2023/09/09 10:22:55;;;;;;;4.38;3.45;;;;;;;-144.30;34.79;83472.66;5110375;28;20250;-50
2023/09/09 10:25:23;;;;;;;4.75;3.28;;;;;;;-144.30;33.94;83484.56;5110547;28;20552;-52
2023/09/09 10:27:51;;;;;;;4.72;2.90;;;;;;;-144.30;34.00;83506.41;5109885;28;20194;-51
2023/09/09 10:30:20;;;;;;;3.33;2.97;;;;;;;-144.30;34.05;83393.16;5107975;28;20685;-51
2023/09/09 10:32:48;;;;;;;4.85;3.22;;;;;;;-144.30;34.68;83486.56;5109933;28;20190;-52
2023/09/09 10:35:18;;;;;;;7.53;2.50;;;;;;;-144.30;33.86;83430.91;5109055;28;20194;-50
2023/09/09 10:37:46;;;;;;;3.42;2.67;;;;;;;-144.30;33.46;83468.66;5110003;28;20199;-52
2023/09/09 10:40:15;;;;;;;2.97;2.78;;;;;;;-144.30;33.56;83440.84;5110224;28;20690;-52
2023/09/09 10:42:44;;;;;;;6.13;2.67;;;;;;;-144.30;31.83;83385.22;5110615;28;20723;-56
2023/09/09 10:45:27;;;;;;;4.90;2.30;;;;;;;-144.30;31.83;83407.06;5110416;28;20198;-50
2023/09/09 10:47:56;;;;;;;3.22;2.92;;;;;;;-144.30;32.03;83446.81;5110448;28;20577;-50
2023/09/09 10:50:23;;;;;;;7.40;4.18;;;;;;;-144.30;32.47;83458.72;5109795;28;20750;-55
2023/09/09 10:53:14;;;;;;;23.23;11.57;;;;;;;-144.30;33.04;83490.53;5110278;28;20613;-50
2023/09/09 10:55:41;;;;;;;12.55;7.63;;;;;;;-144.30;32.76;83484.56;5110299;28;20200;-56
2023/09/09 10:58:08;;;;;;;3.20;2.90;;;;;;;-144.30;30.72;83466.69;5110181;28;20226;-56
2023/09/09 11:00:41;;;;;;;2.60;2.40;;;;;;;-144.30;30.35;83452.78;5110148;28;20187;-56
2023/09/09 11:03:12;;;;;;;13.00;5.45;;;;;;;-144.30;30.33;83502.44;5109938;28;20276;-49
2023/09/09 11:06:02;;;;;;;5.80;2.85;;;;;;;-144.30;29.19;83522.31;5109755;28;20281;-50
2023/09/09 11:08:30;;;;;;;2.75;2.35;;;;;;;-144.30;29.49;83544.16;5109759;28;20194;-50
2023/09/09 11:11:08;;;;;;;7.35;4.38;;;;;;;-144.30;29.57;83575.97;5109076;28;20683;-56
2023/09/09 11:13:43;;;;;;;3.28;2.83;;;;;;;-144.30;29.51;83562.06;5109205;28;20202;-49
2023/09/09 11:19:08;;;;;;;4.38;3.42;;;;;;;-144.30;30.31;83512.38;5086404;27;20529;-50
2023/09/09 11:21:38;;;;;;;4.38;2.38;;;;;;;-144.30;30.04;83530.25;5087149;28;20298;-57